sensor_id;sensor_type;location;lat;lon;timestamp;pressure;altitude;pressure_sealevel;temperature;humidity
33781;BME280;20097;50.832;19.100;2023-03-14T00:01:45;96780.31;;;7.34;98.46
33781;BME280;20097;50.832;19.100;2023-03-14T00:06:52;96766.13;;;7.30;98.61
33781;BME280;20097;50.832;19.100;2023-03-14T00:11:56;96756.34;;;7.25;99.16
33781;BME280;20097;50.832;19.100;2023-03-14T00:17:00;96748.91;;;7.22;99.14
33781;BME280;20097;50.832;19.100;2023-03-14T00:22:06;96725.72;;;7.14;99.87
33781;BME280;20097;50.832;19.100;2023-03-14T00:27:10;96709.31;;;7.07;100.00
33781;BME280;20097;50.832;19.100;2023-03-14T00:32:14;96695.13;;;7.03;100.00
33781;BME280;20097;50.832;19.100;2023-03-14T00:37:19;96682.09;;;6.96;100.00
33781;BME280;20097;50.832;19.100;2023-03-14T00:42:24;96675.13;;;6.97;100.00
33781;BME280;20097;50.832;19.100;2023-03-14T00:47:28;96656.16;;;6.96;100.00
33781;BME280;20097;50.832;19.100;2023-03-14T00:52:33;96649.78;;;6.92;100.00
33781;BME280;20097;50.832;19.100;2023-03-14T00:57:37;96654.34;;;6.90;100.00
33781;BME280;20097;50.832;19.100;2023-03-14T01:02:41;96641.19;;;6.92;100.00
33781;BME280;20097;50.832;19.100;2023-03-14T01:07:47;96619.66;;;6.98;100.00
33781;BME280;20097;50.832;19.100;2023-03-14T01:12:51;96597.13;;;6.98;100.00
33781;BME280;20097;50.832;19.100;2023-03-14T01:17:55;96589.50;;;6.90;100.00
33781;BME280;20097;50.832;19.100;2023-03-14T01:23:00;96568.34;;;6.87;100.00
33781;BME280;20097;50.832;19.100;2023-03-14T01:28:04;96577.53;;;6.89;100.00
33781;BME280;20097;50.832;19.100;2023-03-14T01:33:10;96570.13;;;6.86;100.00
33781;BME280;20097;50.832;19.100;2023-03-14T01:38:20;96556.78;;;6.89;100.00
33781;BME280;20097;50.832;19.100;2023-03-14T01:43:24;96573.41;;;7.02;100.00
33781;BME280;20097;50.832;19.100;2023-03-14T01:48:31;96584.41;;;7.10;100.00
33781;BME280;20097;50.832;19.100;2023-03-14T01:53:37;96615.38;;;7.18;100.00
33781;BME280;20097;50.832;19.100;2023-03-14T01:58:45;96593.66;;;7.26;100.00
33781;BME280;20097;50.832;19.100;2023-03-14T02:03:52;96587.31;;;7.35;100.00
33781;BME280;20097;50.832;19.100;2023-03-14T02:08:59;96572.16;;;7.38;100.00
33781;BME280;20097;50.832;19.100;2023-03-14T02:14:07;96572.94;;;7.45;100.00
33781;BME280;20097;50.832;19.100;2023-03-14T02:19:55;96560.19;;;7.44;100.00
33781;BME280;20097;50.832;19.100;2023-03-14T02:25:14;96570.38;;;7.52;100.00
33781;BME280;20097;50.832;19.100;2023-03-14T02:30:23;96576.19;;;7.54;99.58
33781;BME280;20097;50.832;19.100;2023-03-14T02:35:29;96568.97;;;7.49;100.00
33781;BME280;20097;50.832;19.100;2023-03-14T02:40:35;96551.56;;;7.43;100.00
33781;BME280;20097;50.832;19.100;2023-03-14T02:45:43;96535.41;;;7.35;100.00
33781;BME280;20097;50.832;19.100;2023-03-14T02:50:53;96550.97;;;7.35;100.00
33781;BME280;20097;50.832;19.100;2023-03-14T02:55:59;96579.31;;;7.30;100.00
33781;BME280;20097;50.832;19.100;2023-03-14T03:01:07;96571.66;;;7.15;100.00
33781;BME280;20097;50.832;19.100;2023-03-14T03:06:13;96602.31;;;6.98;100.00
33781;BME280;20097;50.832;19.100;2023-03-14T03:11:17;96623.47;;;6.95;100.00
33781;BME280;20097;50.832;19.100;2023-03-14T03:16:22;96614.59;;;6.49;100.00
33781;BME280;20097;50.832;19.100;2023-03-14T03:21:26;96614.75;;;6.20;100.00
33781;BME280;20097;50.832;19.100;2023-03-14T03:26:31;96616.50;;;5.92;100.00
33781;BME280;20097;50.832;19.100;2023-03-14T03:31:38;96621.88;;;5.91;100.00
33781;BME280;20097;50.832;19.100;2023-03-14T03:36:43;96603.81;;;5.97;100.00
33781;BME280;20097;50.832;19.100;2023-03-14T03:41:48;96602.94;;;6.11;100.00
33781;BME280;20097;50.832;19.100;2023-03-14T03:46:54;96595.88;;;6.26;100.00
33781;BME280;20097;50.832;19.100;2023-03-14T03:51:59;96589.19;;;6.38;100.00
33781;BME280;20097;50.832;19.100;2023-03-14T03:57:03;96580.47;;;6.46;100.00
33781;BME280;20097;50.832;19.100;2023-03-14T04:02:10;96571.34;;;6.50;100.00
33781;BME280;20097;50.832;19.100;2023-03-14T04:07:15;96577.72;;;6.54;100.00
33781;BME280;20097;50.832;19.100;2023-03-14T04:12:19;96566.19;;;6.56;100.00
33781;BME280;20097;50.832;19.100;2023-03-14T04:17:35;96542.88;;;6.56;100.00
33781;BME280;20097;50.832;19.100;2023-03-14T04:22:40;96530.88;;;6.55;100.00
33781;BME280;20097;50.832;19.100;2023-03-14T04:27:47;96523.34;;;6.60;100.00
33781;BME280;20097;50.832;19.100;2023-03-14T04:33:00;96504.25;;;6.68;100.00
33781;BME280;20097;50.832;19.100;2023-03-14T04:38:06;96483.16;;;6.77;100.00
33781;BME280;20097;50.832;19.100;2023-03-14T04:43:11;96482.16;;;6.85;100.00
33781;BME280;20097;50.832;19.100;2023-03-14T04:48:36;96476.59;;;6.88;100.00
33781;BME280;20097;50.832;19.100;2023-03-14T04:53:42;96466.41;;;6.86;100.00
33781;BME280;20097;50.832;19.100;2023-03-14T04:58:49;96459.41;;;6.80;100.00
33781;BME280;20097;50.832;19.100;2023-03-14T05:03:55;96446.03;;;6.77;100.00
33781;BME280;20097;50.832;19.100;2023-03-14T05:09:18;96436.47;;;6.71;100.00
33781;BME280;20097;50.832;19.100;2023-03-14T05:14:46;96427.09;;;6.70;100.00
33781;BME280;20097;50.832;19.100;2023-03-14T05:20:21;96417.50;;;6.64;100.00
33781;BME280;20097;50.832;19.100;2023-03-14T05:25:53;96419.13;;;6.71;100.00
33781;BME280;20097;50.832;19.100;2023-03-14T05:31:11;96420.31;;;6.75;100.00
33781;BME280;20097;50.832;19.100;2023-03-14T05:36:55;96422.94;;;6.82;100.00
33781;BME280;20097;50.832;19.100;2023-03-14T05:42:22;96425.94;;;6.85;100.00
33781;BME280;20097;50.832;19.100;2023-03-14T05:47:45;96434.91;;;6.89;100.00
33781;BME280;20097;50.832;19.100;2023-03-14T05:53:13;96423.97;;;6.94;100.00
33781;BME280;20097;50.832;19.100;2023-03-14T05:58:36;96428.16;;;7.02;100.00
33781;BME280;20097;50.832;19.100;2023-03-14T06:03:41;96421.59;;;7.12;100.00
33781;BME280;20097;50.832;19.100;2023-03-14T06:08:46;96406.84;;;7.19;100.00
33781;BME280;20097;50.832;19.100;2023-03-14T06:13:51;96407.25;;;7.29;100.00
33781;BME280;20097;50.832;19.100;2023-03-14T06:18:56;96413.25;;;7.43;100.00
33781;BME280;20097;50.832;19.100;2023-03-14T06:24:02;96399.06;;;7.58;100.00
33781;BME280;20097;50.832;19.100;2023-03-14T06:29:09;96407.44;;;7.73;100.00
33781;BME280;20097;50.832;19.100;2023-03-14T06:34:14;96390.44;;;7.84;100.00
33781;BME280;20097;50.832;19.100;2023-03-14T06:39:20;96389.22;;;7.93;100.00
33781;BME280;20097;50.832;19.100;2023-03-14T06:44:34;96381.19;;;8.07;100.00
33781;BME280;20097;50.832;19.100;2023-03-14T06:49:39;96379.75;;;8.24;100.00
33781;BME280;20097;50.832;19.100;2023-03-14T06:54:45;96364.28;;;8.43;100.00
33781;BME280;20097;50.832;19.100;2023-03-14T06:59:49;96373.81;;;8.62;100.00
33781;BME280;20097;50.832;19.100;2023-03-14T07:04:53;96375.72;;;8.79;100.00
33781;BME280;20097;50.832;19.100;2023-03-14T07:09:59;96380.78;;;9.05;100.00
33781;BME280;20097;50.832;19.100;2023-03-14T07:15:04;96379.28;;;9.40;98.85
33781;BME280;20097;50.832;19.100;2023-03-14T07:20:21;96377.22;;;9.73;95.56
33781;BME280;20097;50.832;19.100;2023-03-14T07:25:28;96376.59;;;9.96;93.78
33781;BME280;20097;50.832;19.100;2023-03-14T07:30:32;96370.63;;;10.14;89.66
33781;BME280;20097;50.832;19.100;2023-03-14T07:35:39;96395.19;;;10.42;85.24
33781;BME280;20097;50.832;19.100;2023-03-14T07:40:45;96403.59;;;10.74;84.33
33781;BME280;20097;50.832;19.100;2023-03-14T07:45:49;96405.63;;;11.01;80.85
33781;BME280;20097;50.832;19.100;2023-03-14T07:51:01;96395.00;;;11.15;77.94
33781;BME280;20097;50.832;19.100;2023-03-14T07:56:07;96397.19;;;11.29;75.22
33781;BME280;20097;50.832;19.100;2023-03-14T08:01:11;96406.88;;;11.52;73.22
33781;BME280;20097;50.832;19.100;2023-03-14T08:06:16;96398.41;;;11.68;73.47
33781;BME280;20097;50.832;19.100;2023-03-14T08:11:21;96417.19;;;11.88;72.13
33781;BME280;20097;50.832;19.100;2023-03-14T08:16:25;96423.44;;;11.98;69.43
33781;BME280;20097;50.832;19.100;2023-03-14T08:21:30;96416.97;;;12.12;69.34
33781;BME280;20097;50.832;19.100;2023-03-14T08:26:35;96396.25;;;12.34;67.72
33781;BME280;20097;50.832;19.100;2023-03-14T08:31:39;96403.00;;;12.58;68.06
33781;BME280;20097;50.832;19.100;2023-03-14T08:36:44;96413.97;;;12.43;66.46
33781;BME280;20097;50.832;19.100;2023-03-14T08:41:50;96416.38;;;12.22;66.95
33781;BME280;20097;50.832;19.100;2023-03-14T08:46:54;96422.75;;;12.03;67.98
33781;BME280;20097;50.832;19.100;2023-03-14T08:51:59;96426.41;;;11.90;68.93
33781;BME280;20097;50.832;19.100;2023-03-14T08:57:05;96425.34;;;11.68;70.99
33781;BME280;20097;50.832;19.100;2023-03-14T09:02:10;96425.13;;;11.70;71.14
33781;BME280;20097;50.832;19.100;2023-03-14T09:07:15;96423.31;;;11.82;70.68
33781;BME280;20097;50.832;19.100;2023-03-14T09:12:21;96415.25;;;11.83;70.76
33781;BME280;20097;50.832;19.100;2023-03-14T09:17:25;96411.03;;;11.94;71.85
33781;BME280;20097;50.832;19.100;2023-03-14T09:22:29;96409.22;;;11.83;72.32
33781;BME280;20097;50.832;19.100;2023-03-14T09:27:35;96427.22;;;11.61;72.50
33781;BME280;20097;50.832;19.100;2023-03-14T09:32:39;96421.47;;;11.59;72.93
33781;BME280;20097;50.832;19.100;2023-03-14T09:37:43;96433.19;;;11.68;74.03
33781;BME280;20097;50.832;19.100;2023-03-14T09:42:50;96445.22;;;11.69;73.96
33781;BME280;20097;50.832;19.100;2023-03-14T09:47:55;96435.25;;;11.89;73.14
33781;BME280;20097;50.832;19.100;2023-03-14T09:53:04;96425.72;;;11.95;73.35
33781;BME280;20097;50.832;19.100;2023-03-14T09:58:13;96431.94;;;11.82;74.38
33781;BME280;20097;50.832;19.100;2023-03-14T10:03:22;96434.78;;;11.69;75.21
33781;BME280;20097;50.832;19.100;2023-03-14T10:08:28;96419.31;;;11.56;76.28
33781;BME280;20097;50.832;19.100;2023-03-14T10:13:33;96402.75;;;11.74;76.83
33781;BME280;20097;50.832;19.100;2023-03-14T10:18:37;96390.03;;;11.77;75.88
33781;BME280;20097;50.832;19.100;2023-03-14T10:23:41;96417.66;;;11.96;75.91
33781;BME280;20097;50.832;19.100;2023-03-14T10:28:50;96405.13;;;12.10;75.40
33781;BME280;20097;50.832;19.100;2023-03-14T10:33:59;96410.47;;;12.15;75.22
33781;BME280;20097;50.832;19.100;2023-03-14T10:39:22;96402.72;;;12.20;74.38
33781;BME280;20097;50.832;19.100;2023-03-14T10:44:29;96422.19;;;12.12;75.70
33781;BME280;20097;50.832;19.100;2023-03-14T10:49:35;96451.75;;;12.01;76.05
33781;BME280;20097;50.832;19.100;2023-03-14T10:54:41;96475.28;;;11.90;77.44
33781;BME280;20097;50.832;19.100;2023-03-14T10:59:51;96473.78;;;11.71;78.69
33781;BME280;20097;50.832;19.100;2023-03-14T11:05:01;96485.97;;;11.59;81.05
33781;BME280;20097;50.832;19.100;2023-03-14T11:10:26;96477.28;;;11.47;86.68
33781;BME280;20097;50.832;19.100;2023-03-14T11:15:36;96487.16;;;11.33;93.32
33781;BME280;20097;50.832;19.100;2023-03-14T11:20:44;96493.09;;;11.11;98.39
33781;BME280;20097;50.832;19.100;2023-03-14T11:25:54;96488.94;;;11.03;100.00
33781;BME280;20097;50.832;19.100;2023-03-14T11:31:04;96499.31;;;10.91;100.00
33781;BME280;20097;50.832;19.100;2023-03-14T11:36:14;96491.84;;;10.95;100.00
33781;BME280;20097;50.832;19.100;2023-03-14T11:41:23;96485.41;;;10.97;100.00
33781;BME280;20097;50.832;19.100;2023-03-14T11:46:32;96479.53;;;11.02;100.00
33781;BME280;20097;50.832;19.100;2023-03-14T11:51:38;96484.09;;;11.06;100.00
33781;BME280;20097;50.832;19.100;2023-03-14T11:56:46;96475.59;;;10.93;100.00
33781;BME280;20097;50.832;19.100;2023-03-14T12:01:55;96481.13;;;10.85;100.00
33781;BME280;20097;50.832;19.100;2023-03-14T12:07:02;96490.34;;;10.69;100.00
33781;BME280;20097;50.832;19.100;2023-03-14T12:12:10;96490.50;;;10.56;100.00
33781;BME280;20097;50.832;19.100;2023-03-14T12:17:21;96465.38;;;10.44;100.00
33781;BME280;20097;50.832;19.100;2023-03-14T12:22:26;96464.13;;;10.46;100.00
33781;BME280;20097;50.832;19.100;2023-03-14T12:33:32;96439.63;;;10.47;100.00
33781;BME280;20097;50.832;19.100;2023-03-14T12:38:46;96429.47;;;10.57;100.00
33781;BME280;20097;50.832;19.100;2023-03-14T12:43:52;96421.44;;;10.59;100.00
33781;BME280;20097;50.832;19.100;2023-03-14T12:49:03;96427.38;;;10.66;100.00
33781;BME280;20097;50.832;19.100;2023-03-14T12:54:25;96429.31;;;10.70;100.00
33781;BME280;20097;50.832;19.100;2023-03-14T12:59:33;96421.72;;;10.69;100.00
33781;BME280;20097;50.832;19.100;2023-03-14T13:04:44;96411.19;;;10.75;100.00
33781;BME280;20097;50.832;19.100;2023-03-14T13:09:54;96429.16;;;10.83;100.00
33781;BME280;20097;50.832;19.100;2023-03-14T13:14:59;96425.84;;;11.06;100.00
33781;BME280;20097;50.832;19.100;2023-03-14T13:20:12;96435.28;;;11.07;100.00
33781;BME280;20097;50.832;19.100;2023-03-14T13:25:18;96418.22;;;11.34;100.00
33781;BME280;20097;50.832;19.100;2023-03-14T13:30:25;96423.31;;;11.29;100.00
33781;BME280;20097;50.832;19.100;2023-03-14T13:35:39;96440.31;;;11.20;100.00
33781;BME280;20097;50.832;19.100;2023-03-14T13:40:44;96440.31;;;11.20;100.00
33781;BME280;20097;50.832;19.100;2023-03-14T13:45:51;96438.72;;;11.19;100.00
33781;BME280;20097;50.832;19.100;2023-03-14T13:50:59;96444.72;;;10.90;100.00
33781;BME280;20097;50.832;19.100;2023-03-14T13:56:05;96449.72;;;10.91;100.00
33781;BME280;20097;50.832;19.100;2023-03-14T14:01:14;96454.81;;;10.86;100.00
33781;BME280;20097;50.832;19.100;2023-03-14T14:06:26;96453.16;;;10.92;100.00
33781;BME280;20097;50.832;19.100;2023-03-14T14:11:38;96450.63;;;10.85;100.00
33781;BME280;20097;50.832;19.100;2023-03-14T14:16:55;96438.22;;;10.99;100.00
33781;BME280;20097;50.832;19.100;2023-03-14T14:22:02;96439.06;;;10.93;100.00
33781;BME280;20097;50.832;19.100;2023-03-14T14:27:10;96409.13;;;10.95;100.00
33781;BME280;20097;50.832;19.100;2023-03-14T14:32:16;96411.31;;;10.98;100.00
33781;BME280;20097;50.832;19.100;2023-03-14T14:37:22;96413.72;;;10.82;100.00
33781;BME280;20097;50.832;19.100;2023-03-14T14:42:30;96413.63;;;10.88;100.00
33781;BME280;20097;50.832;19.100;2023-03-14T14:47:35;96413.47;;;11.01;100.00
33781;BME280;20097;50.832;19.100;2023-03-14T14:52:41;96409.00;;;11.20;100.00
33781;BME280;20097;50.832;19.100;2023-03-14T14:57:50;96408.88;;;11.15;100.00
33781;BME280;20097;50.832;19.100;2023-03-14T15:02:58;96401.53;;;10.94;100.00
33781;BME280;20097;50.832;19.100;2023-03-14T15:08:08;96416.06;;;10.72;100.00
33781;BME280;20097;50.832;19.100;2023-03-14T15:13:12;96414.91;;;10.68;100.00
33781;BME280;20097;50.832;19.100;2023-03-14T15:18:18;96427.09;;;10.56;100.00
33781;BME280;20097;50.832;19.100;2023-03-14T15:23:23;96411.28;;;10.51;100.00
33781;BME280;20097;50.832;19.100;2023-03-14T15:28:28;96395.44;;;10.52;100.00
33781;BME280;20097;50.832;19.100;2023-03-14T15:33:33;96390.88;;;10.48;100.00
33781;BME280;20097;50.832;19.100;2023-03-14T15:38:38;96376.25;;;10.47;100.00
33781;BME280;20097;50.832;19.100;2023-03-14T15:43:42;96382.91;;;10.43;100.00
33781;BME280;20097;50.832;19.100;2023-03-14T15:48:46;96398.84;;;10.35;100.00
33781;BME280;20097;50.832;19.100;2023-03-14T15:53:52;96391.47;;;10.32;100.00
33781;BME280;20097;50.832;19.100;2023-03-14T15:58:56;96379.25;;;10.32;100.00
33781;BME280;20097;50.832;19.100;2023-03-14T16:04:00;96378.13;;;10.40;100.00
33781;BME280;20097;50.832;19.100;2023-03-14T16:09:06;96377.53;;;10.38;100.00
33781;BME280;20097;50.832;19.100;2023-03-14T16:14:10;96385.13;;;10.28;100.00
33781;BME280;20097;50.832;19.100;2023-03-14T16:19:14;96375.53;;;10.22;100.00
33781;BME280;20097;50.832;19.100;2023-03-14T16:24:20;96384.09;;;10.11;100.00
33781;BME280;20097;50.832;19.100;2023-03-14T16:29:24;96402.44;;;9.98;100.00
33781;BME280;20097;50.832;19.100;2023-03-14T16:34:29;96403.47;;;9.97;100.00
33781;BME280;20097;50.832;19.100;2023-03-14T16:39:35;96408.78;;;9.84;100.00
33781;BME280;20097;50.832;19.100;2023-03-14T16:44:59;96411.81;;;9.81;100.00
33781;BME280;20097;50.832;19.100;2023-03-14T16:50:03;96411.72;;;9.69;100.00
33781;BME280;20097;50.832;19.100;2023-03-14T16:55:11;96411.66;;;9.51;100.00
33781;BME280;20097;50.832;19.100;2023-03-14T17:00:16;96412.09;;;9.48;100.00
33781;BME280;20097;50.832;19.100;2023-03-14T17:05:20;96430.78;;;9.38;100.00
33781;BME280;20097;50.832;19.100;2023-03-14T17:10:26;96428.06;;;9.27;100.00
33781;BME280;20097;50.832;19.100;2023-03-14T17:15:30;96421.91;;;9.21;100.00
33781;BME280;20097;50.832;19.100;2023-03-14T17:20:34;96421.16;;;9.08;100.00
33781;BME280;20097;50.832;19.100;2023-03-14T17:25:39;96437.66;;;8.95;100.00
33781;BME280;20097;50.832;19.100;2023-03-14T17:30:43;96427.28;;;8.89;100.00
33781;BME280;20097;50.832;19.100;2023-03-14T17:35:48;96439.91;;;8.85;100.00
33781;BME280;20097;50.832;19.100;2023-03-14T17:40:53;96438.78;;;8.75;100.00
33781;BME280;20097;50.832;19.100;2023-03-14T17:45:58;96443.00;;;8.69;100.00
33781;BME280;20097;50.832;19.100;2023-03-14T17:51:02;96444.59;;;8.64;100.00
33781;BME280;20097;50.832;19.100;2023-03-14T17:56:08;96443.03;;;8.56;100.00
33781;BME280;20097;50.832;19.100;2023-03-14T18:01:14;96457.84;;;8.49;100.00
33781;BME280;20097;50.832;19.100;2023-03-14T18:06:19;96472.50;;;8.44;100.00
33781;BME280;20097;50.832;19.100;2023-03-14T18:11:25;96480.09;;;8.39;100.00
33781;BME280;20097;50.832;19.100;2023-03-14T18:16:29;96480.72;;;8.34;100.00
33781;BME280;20097;50.832;19.100;2023-03-14T18:21:34;96487.72;;;8.27;100.00
33781;BME280;20097;50.832;19.100;2023-03-14T18:26:39;96488.72;;;8.26;100.00
33781;BME280;20097;50.832;19.100;2023-03-14T18:31:43;96469.13;;;8.23;100.00
33781;BME280;20097;50.832;19.100;2023-03-14T18:36:48;96477.53;;;8.25;100.00
33781;BME280;20097;50.832;19.100;2023-03-14T18:41:53;96482.72;;;8.25;100.00
33781;BME280;20097;50.832;19.100;2023-03-14T18:46:57;96485.53;;;8.24;100.00
33781;BME280;20097;50.832;19.100;2023-03-14T18:52:01;96485.50;;;8.17;100.00
33781;BME280;20097;50.832;19.100;2023-03-14T18:57:06;96483.31;;;8.14;100.00
33781;BME280;20097;50.832;19.100;2023-03-14T19:02:10;96492.72;;;8.09;100.00
33781;BME280;20097;50.832;19.100;2023-03-14T19:07:14;96504.13;;;8.08;100.00
33781;BME280;20097;50.832;19.100;2023-03-14T19:12:20;96502.50;;;8.07;100.00
33781;BME280;20097;50.832;19.100;2023-03-14T19:17:24;96505.69;;;8.02;100.00
33781;BME280;20097;50.832;19.100;2023-03-14T19:22:28;96513.28;;;7.97;100.00
33781;BME280;20097;50.832;19.100;2023-03-14T19:27:35;96520.69;;;7.94;100.00
33781;BME280;20097;50.832;19.100;2023-03-14T19:32:40;96515.28;;;7.89;100.00
33781;BME280;20097;50.832;19.100;2023-03-14T19:37:45;96503.09;;;7.83;100.00
33781;BME280;20097;50.832;19.100;2023-03-14T19:42:52;96498.72;;;7.77;100.00
33781;BME280;20097;50.832;19.100;2023-03-14T19:47:56;96508.50;;;7.75;100.00
33781;BME280;20097;50.832;19.100;2023-03-14T19:53:01;96504.91;;;7.76;100.00
33781;BME280;20097;50.832;19.100;2023-03-14T19:58:07;96509.09;;;7.77;100.00
33781;BME280;20097;50.832;19.100;2023-03-14T20:03:11;96507.13;;;7.72;100.00
33781;BME280;20097;50.832;19.100;2023-03-14T20:08:16;96513.28;;;7.78;100.00
33781;BME280;20097;50.832;19.100;2023-03-14T20:13:21;96508.09;;;7.84;100.00
33781;BME280;20097;50.832;19.100;2023-03-14T20:18:26;96510.69;;;7.91;100.00
33781;BME280;20097;50.832;19.100;2023-03-14T20:23:31;96518.28;;;7.99;100.00
33781;BME280;20097;50.832;19.100;2023-03-14T20:28:36;96523.69;;;8.10;100.00
33781;BME280;20097;50.832;19.100;2023-03-14T20:33:40;96523.47;;;8.18;100.00
33781;BME280;20097;50.832;19.100;2023-03-14T20:38:45;96534.69;;;8.25;100.00
33781;BME280;20097;50.832;19.100;2023-03-14T20:43:50;96542.28;;;8.33;100.00
33781;BME280;20097;50.832;19.100;2023-03-14T20:48:54;96548.66;;;8.38;100.00
33781;BME280;20097;50.832;19.100;2023-03-14T20:53:58;96541.25;;;8.41;100.00
33781;BME280;20097;50.832;19.100;2023-03-14T20:59:04;96548.84;;;8.49;100.00
33781;BME280;20097;50.832;19.100;2023-03-14T21:04:08;96546.84;;;8.51;100.00
33781;BME280;20097;50.832;19.100;2023-03-14T21:09:12;96559.03;;;8.51;100.00
33781;BME280;20097;50.832;19.100;2023-03-14T21:14:17;96548.66;;;8.51;100.00
33781;BME280;20097;50.832;19.100;2023-03-14T21:19:24;96548.25;;;8.54;100.00
33781;BME280;20097;50.832;19.100;2023-03-14T21:24:32;96546.44;;;8.54;100.00
33781;BME280;20097;50.832;19.100;2023-03-14T21:29:38;96530.06;;;8.54;100.00
33781;BME280;20097;50.832;19.100;2023-03-14T21:34:42;96530.06;;;8.47;100.00
33781;BME280;20097;50.832;19.100;2023-03-14T21:39:50;96553.28;;;8.49;100.00
33781;BME280;20097;50.832;19.100;2023-03-14T21:44:55;96545.88;;;8.46;100.00
33781;BME280;20097;50.832;19.100;2023-03-14T21:49:59;96557.84;;;8.53;100.00
33781;BME280;20097;50.832;19.100;2023-03-14T21:55:04;96557.47;;;8.50;100.00
33781;BME280;20097;50.832;19.100;2023-03-14T22:00:11;96591.66;;;8.53;100.00
33781;BME280;20097;50.832;19.100;2023-03-14T22:05:18;96598.22;;;8.62;100.00
33781;BME280;20097;50.832;19.100;2023-03-14T22:10:23;96614.44;;;8.71;100.00
33781;BME280;20097;50.832;19.100;2023-03-14T22:15:28;96642.63;;;8.80;100.00
33781;BME280;20097;50.832;19.100;2023-03-14T22:20:32;96646.44;;;8.84;100.00
33781;BME280;20097;50.832;19.100;2023-03-14T22:25:38;96681.22;;;8.83;100.00
33781;BME280;20097;50.832;19.100;2023-03-14T22:30:46;96710.44;;;8.33;100.00
33781;BME280;20097;50.832;19.100;2023-03-14T22:35:51;96721.63;;;7.73;100.00
33781;BME280;20097;50.832;19.100;2023-03-14T22:40:59;96747.66;;;7.46;100.00
33781;BME280;20097;50.832;19.100;2023-03-14T22:46:06;96756.75;;;7.01;100.00
33781;BME280;20097;50.832;19.100;2023-03-14T22:51:10;96780.94;;;6.59;100.00
33781;BME280;20097;50.832;19.100;2023-03-14T22:56:14;96810.56;;;6.50;100.00
33781;BME280;20097;50.832;19.100;2023-03-14T23:01:19;96845.13;;;6.22;100.00
33781;BME280;20097;50.832;19.100;2023-03-14T23:06:23;96885.56;;;5.79;100.00
33781;BME280;20097;50.832;19.100;2023-03-14T23:11:28;96893.56;;;5.40;100.00
33781;BME280;20097;50.832;19.100;2023-03-14T23:16:33;96921.41;;;4.93;100.00
33781;BME280;20097;50.832;19.100;2023-03-14T23:21:42;96938.09;;;4.21;100.00
33781;BME280;20097;50.832;19.100;2023-03-14T23:26:46;96949.00;;;3.85;100.00
33781;BME280;20097;50.832;19.100;2023-03-14T23:31:52;96987.91;;;3.59;100.00
33781;BME280;20097;50.832;19.100;2023-03-14T23:36:55;96999.84;;;3.52;100.00
33781;BME280;20097;50.832;19.100;2023-03-14T23:42:00;97010.31;;;3.51;100.00
33781;BME280;20097;50.832;19.100;2023-03-14T23:47:05;97038.50;;;3.28;100.00
33781;BME280;20097;50.832;19.100;2023-03-14T23:52:10;97043.16;;;3.25;100.00
33781;BME280;20097;50.832;19.100;2023-03-14T23:57:14;97052.81;;;3.15;100.00
